Half Day, Illinois
Current Conditions -  °F | °C
As of 5:52 PM on Wednesday 22 Oct 2014 (Local Time) from KPWK Reporting Station
Clear Clear  
Wind Chill: 46°   Ceiling: Unl
Heat Index: 49°   Visibility: 10mi
Dew Point: 37°   Wind: 7mph
Humidity: 64%   Direction: 90°E
Pressure: 30.3"   Gusts: NA
Location:  42.1941°N, 87.9317°W
Report Text: KPWK 222252Z 09006KT 10SM CLR 09/03 A3030 RMK AO2 SLP263 T00940028
Loading
Personal Weather Stations






























Interactive Weather Map
Tropical Storm Tracking
New forecast layout! Learn more

10-Day Weather Forecast

Advertisements
Track Severe Weather on mobile